Time;durP1;ratioP1;P1;durP2;ratioP2;P2;SDS_P1;SDS_P2;PMS_P1;PMS_P2;Temp;Humidity;BMP_temperature;BMP_pressure;BME280_temperature;BME280_humidity;BME280_pressure;Samples;Min_cycle;Max_cycle;Signal;HPM_P1;HPM_P2
2023/08/18 00:02:15;;;;;;;1.40;1.30;;;;;;;;;;5014567;28;20212;-85
2023/08/18 00:04:44;;;;;;;1.87;1.57;;;;;;;;;;5013689;28;20303;-85
2023/08/18 00:07:12;;;;;;;2.23;2.03;;;;;;;;;;5014066;28;20216;-85
2023/08/18 00:09:41;;;;;;;3.50;3.20;;;;;;;;;;5014285;28;20438;-90
2023/08/18 00:12:11;;;;;;;1.23;1.13;;;;;;;;;;5014412;28;20204;-90
2023/08/18 00:14:39;;;;;;;2.90;2.57;;;;;;;;;;5014156;28;20220;-89
2023/08/18 00:17:08;;;;;;;5.10;4.13;;;;;;;;;;5014608;28;20213;-85
2023/08/18 00:19:36;;;;;;;4.20;3.33;;;;;;;;;;5013759;28;20200;-85
2023/08/18 00:22:05;;;;;;;1.17;0.90;;;;;;;;;;5013835;28;20261;-85
2023/08/18 00:24:33;;;;;;;1.03;1.03;;;;;;;;;;5014079;28;20234;-85
2023/08/18 00:27:02;;;;;;;3.40;3.10;;;;;;;;;;5013104;28;20204;-85
2023/08/18 00:29:32;;;;;;;1.50;1.43;;;;;;;;;;5013288;28;20212;-85
2023/08/18 00:32:00;;;;;;;3.80;3.07;;;;;;;;;;5013456;28;20196;-85
2023/08/18 00:34:29;;;;;;;1.20;1.10;;;;;;;;;;5013819;28;20295;-85
2023/08/18 00:36:57;;;;;;;5.20;4.70;;;;;;;;;;5013907;28;20258;-85
2023/08/18 00:39:26;;;;;;;6.53;4.87;;;;;;;;;;5012820;28;20211;-85
2023/08/18 00:41:54;;;;;;;2.20;1.67;;;;;;;;;;5013316;28;20188;-85
2023/08/18 00:44:22;;;;;;;2.30;2.10;;;;;;;;;;5013654;28;20222;-86
2023/08/18 00:46:53;;;;;;;22.07;4.63;;;;;;;;;;5013269;28;20209;-85
2023/08/18 00:49:22;;;;;;;4.03;3.60;;;;;;;;;;5013300;28;20220;-90
2023/08/18 00:51:50;;;;;;;4.70;4.13;;;;;;;;;;5013696;28;20232;-85
2023/08/18 00:54:19;;;;;;;2.53;2.10;;;;;;;;;;5013580;28;20204;-85
2023/08/18 00:56:48;;;;;;;3.07;2.77;;;;;;;;;;5013249;28;20210;-86
2023/08/18 00:59:16;;;;;;;6.87;4.77;;;;;;;;;;5012699;28;20199;-85
2023/08/18 01:01:45;;;;;;;5.70;4.00;;;;;;;;;;5013341;28;20262;-86
2023/08/18 01:04:15;;;;;;;4.17;3.87;;;;;;;;;;5013093;28;20200;-85
2023/08/18 01:06:44;;;;;;;6.47;3.80;;;;;;;;;;5012718;28;20231;-90
2023/08/18 01:09:13;;;;;;;4.10;2.87;;;;;;;;;;5013450;28;20224;-91
2023/08/18 01:11:44;;;;;;;3.53;3.23;;;;;;;;;;5013550;28;20207;-90
2023/08/18 01:14:23;;;;;;;2.03;1.90;;;;;;;;;;5012718;28;20270;-88
2023/08/18 01:16:58;;;;;;;3.10;2.80;;;;;;;;;;5013353;28;20210;-90
2023/08/18 01:19:28;;;;;;;4.40;3.50;;;;;;;;;;5012555;28;20219;-84
2023/08/18 01:21:58;;;;;;;3.43;2.63;;;;;;;;;;5012753;28;20208;-85
2023/08/18 01:24:29;;;;;;;8.27;7.43;;;;;;;;;;5012426;28;20209;-85
2023/08/18 01:26:57;;;;;;;3.53;3.23;;;;;;;;;;5012602;28;20204;-85
2023/08/18 01:29:27;;;;;;;2.00;1.83;;;;;;;;;;5013259;28;20389;-85
2023/08/18 01:31:57;;;;;;;2.00;1.80;;;;;;;;;;5012419;28;20206;-85
2023/08/18 01:34:26;;;;;;;2.17;1.97;;;;;;;;;;5012403;28;20212;-85
2023/08/18 01:36:56;;;;;;;6.97;6.27;;;;;;;;;;5012361;28;20407;-85
2023/08/18 01:39:25;;;;;;;4.67;4.23;;;;;;;;;;5012449;28;20201;-85
2023/08/18 01:41:55;;;;;;;5.27;4.40;;;;;;;;;;5011516;28;20199;-85
2023/08/18 01:44:23;;;;;;;6.23;4.87;;;;;;;;;;5012765;28;20297;-86
2023/08/18 01:46:52;;;;;;;4.43;4.03;;;;;;;;;;5012096;28;20196;-85
2023/08/18 01:49:20;;;;;;;7.03;6.00;;;;;;;;;;5012158;28;20246;-87
2023/08/18 01:51:49;;;;;;;5.60;3.17;;;;;;;;;;5011925;28;20232;-85
2023/08/18 01:54:18;;;;;;;7.80;6.00;;;;;;;;;;5012500;28;20199;-85
2023/08/18 01:56:46;;;;;;;3.47;2.90;;;;;;;;;;5012477;28;20210;-90
2023/08/18 01:59:16;;;;;;;11.07;5.43;;;;;;;;;;5012224;28;20192;-90
2023/08/18 02:01:45;;;;;;;0.80;0.80;;;;;;;;;;5013115;28;20294;-90
2023/08/18 02:04:13;;;;;;;5.90;3.83;;;;;;;;;;5013039;28;20200;-90
2023/08/18 02:06:42;;;;;;;6.87;5.70;;;;;;;;;;5012138;28;20243;-90
2023/08/18 02:09:10;;;;;;;9.70;6.87;;;;;;;;;;5012256;28;20212;-90
2023/08/18 02:11:39;;;;;;;2.50;1.70;;;;;;;;;;5012910;28;20199;-90
2023/08/18 02:14:08;;;;;;;5.67;2.53;;;;;;;;;;5012874;28;20204;-90
2023/08/18 02:16:38;;;;;;;6.53;5.90;;;;;;;;;;5011977;28;20223;-90
2023/08/18 02:19:06;;;;;;;5.47;3.37;;;;;;;;;;5012304;28;20196;-90
2023/08/18 02:21:35;;;;;;;4.07;3.70;;;;;;;;;;5012251;28;20196;-90
2023/08/18 02:24:04;;;;;;;2.60;2.40;;;;;;;;;;5012577;28;20210;-89
2023/08/18 02:26:32;;;;;;;5.20;3.10;;;;;;;;;;5012377;28;20210;-85
2023/08/18 02:29:01;;;;;;;1.40;1.30;;;;;;;;;;5012049;28;20200;-86
2023/08/18 02:31:31;;;;;;;3.90;2.63;;;;;;;;;;5011795;28;20277;-85
2023/08/18 02:34:00;;;;;;;1.70;1.60;;;;;;;;;;5011429;28;20290;-85
2023/08/18 02:36:29;;;;;;;3.00;2.07;;;;;;;;;;5011728;28;20222;-86
2023/08/18 02:38:57;;;;;;;4.03;3.50;;;;;;;;;;5011655;28;20196;-85
2023/08/18 02:41:26;;;;;;;5.57;4.33;;;;;;;;;;5012166;28;20277;-85
2023/08/18 02:43:54;;;;;;;1.53;1.43;;;;;;;;;;5011765;28;20213;-85
2023/08/18 02:46:23;;;;;;;4.43;3.87;;;;;;;;;;5011454;28;20199;-89
2023/08/18 02:48:51;;;;;;;12.00;4.50;;;;;;;;;;5012065;28;20207;-90
2023/08/18 02:51:21;;;;;;;3.57;3.20;;;;;;;;;;5016586;28;20225;-90
2023/08/18 02:53:50;;;;;;;7.20;3.83;;;;;;;;;;5015919;28;20203;-88
2023/08/18 02:56:18;;;;;;;4.10;3.77;;;;;;;;;;5016201;28;20211;-90
2023/08/18 02:58:47;;;;;;;3.23;2.47;;;;;;;;;;5015787;28;20194;-90
2023/08/18 03:01:15;;;;;;;3.77;2.97;;;;;;;;;;5015467;28;20222;-90
2023/08/18 03:03:44;;;;;;;3.50;3.20;;;;;;;;;;5015895;28;20199;-90
2023/08/18 03:06:13;;;;;;;4.00;3.60;;;;;;;;;;5015986;28;20283;-90
2023/08/18 03:08:43;;;;;;;5.40;4.70;;;;;;;;;;5015442;28;20196;-90
2023/08/18 03:11:11;;;;;;;6.63;4.87;;;;;;;;;;5015112;28;20220;-90
2023/08/18 03:13:40;;;;;;;1.30;1.23;;;;;;;;;;5015768;28;20204;-90
2023/08/18 03:16:09;;;;;;;6.73;5.10;;;;;;;;;;5015360;28;20239;-85
2023/08/18 03:18:37;;;;;;;2.43;2.23;;;;;;;;;;5014500;28;20196;-85
2023/08/18 03:21:06;;;;;;;3.37;2.70;;;;;;;;;;5014941;28;20207;-86
2023/08/18 03:23:34;;;;;;;2.80;2.47;;;;;;;;;;5014673;28;20271;-85
2023/08/18 03:26:05;;;;;;;2.37;2.17;;;;;;;;;;5015059;28;20231;-85
2023/08/18 03:28:34;;;;;;;3.47;2.03;;;;;;;;;;5014426;28;20200;-85
2023/08/18 03:31:03;;;;;;;1.90;1.77;;;;;;;;;;5014813;28;20216;-85
2023/08/18 03:33:32;;;;;;;8.33;4.17;;;;;;;;;;5014896;28;20199;-85
2023/08/18 03:36:01;;;;;;;1.17;1.13;;;;;;;;;;5015201;28;20204;-90
2023/08/18 03:38:29;;;;;;;4.73;3.57;;;;;;;;;;5014832;28;20200;-90
2023/08/18 03:40:58;;;;;;;1.43;1.30;;;;;;;;;;5015446;28;20236;-90
2023/08/18 03:43:28;;;;;;;2.10;1.90;;;;;;;;;;5014337;28;20198;-85
2023/08/18 03:45:59;;;;;;;2.23;2.03;;;;;;;;;;5014172;28;20282;-85
2023/08/18 03:48:27;;;;;;;5.60;3.20;;;;;;;;;;5014739;28;20223;-85
2023/08/18 03:50:56;;;;;;;3.87;3.47;;;;;;;;;;5014257;28;20230;-90
2023/08/18 03:53:25;;;;;;;1.73;1.63;;;;;;;;;;5014519;28;20210;-90
2023/08/18 03:55:56;;;;;;;9.27;6.80;;;;;;;;;;5014873;28;20200;-89
2023/08/18 03:58:24;;;;;;;2.47;2.27;;;;;;;;;;5014202;28;20196;-88
2023/08/18 04:00:58;;;;;;;2.00;1.90;;;;;;;;;;5012894;28;20196;-88
2023/08/18 04:03:27;;;;;;;3.77;3.17;;;;;;;;;;5013838;28;20302;-86
2023/08/18 04:05:55;;;;;;;6.40;5.57;;;;;;;;;;5014079;28;20290;-85
2023/08/18 04:08:24;;;;;;;2.20;2.00;;;;;;;;;;5014177;28;20204;-86
2023/08/18 04:10:52;;;;;;;5.30;4.23;;;;;;;;;;5013807;28;20217;-86
2023/08/18 04:13:21;;;;;;;9.03;6.10;;;;;;;;;;5014325;28;20214;-85
2023/08/18 04:15:49;;;;;;;3.10;2.23;;;;;;;;;;5014389;28;20199;-86
2023/08/18 04:18:19;;;;;;;2.97;1.93;;;;;;;;;;5014742;28;20294;-88
2023/08/18 04:20:47;;;;;;;2.47;2.13;;;;;;;;;;5013318;28;20204;-88
2023/08/18 04:23:16;;;;;;;5.13;4.43;;;;;;;;;;5013931;28;20199;-88
2023/08/18 04:25:44;;;;;;;2.07;1.87;;;;;;;;;;5014215;28;20304;-88
2023/08/18 04:28:13;;;;;;;5.10;3.13;;;;;;;;;;5013856;28;20204;-88
2023/08/18 04:30:41;;;;;;;1.87;1.77;;;;;;;;;;5013565;28;20243;-88
2023/08/18 04:33:10;;;;;;;5.33;3.50;;;;;;;;;;5014182;28;20211;-88
2023/08/18 04:35:40;;;;;;;4.13;3.60;;;;;;;;;;5014004;28;20235;-89
2023/08/18 04:38:08;;;;;;;0.87;0.87;;;;;;;;;;5013689;28;20304;-88
2023/08/18 04:40:37;;;;;;;5.83;5.10;;;;;;;;;;5013844;28;20211;-86
2023/08/18 04:43:05;;;;;;;4.30;3.13;;;;;;;;;;5013661;28;20207;-86
2023/08/18 04:45:34;;;;;;;3.43;3.13;;;;;;;;;;5013508;28;20207;-86
2023/08/18 04:48:02;;;;;;;2.17;2.07;;;;;;;;;;5013449;28;20215;-85
2023/08/18 04:50:31;;;;;;;1.53;1.43;;;;;;;;;;5013181;28;20207;-85
2023/08/18 04:53:01;;;;;;;0.60;0.60;;;;;;;;;;5014410;28;20212;-90
2023/08/18 04:55:30;;;;;;;2.90;2.07;;;;;;;;;;5014025;28;20208;-89
2023/08/18 04:57:58;;;;;;;5.00;4.03;;;;;;;;;;5014238;28;20250;-88
2023/08/18 05:00:27;;;;;;;2.10;1.37;;;;;;;;;;5013578;28;20217;-88
2023/08/18 05:02:55;;;;;;;3.43;3.13;;;;;;;;;;5013275;28;20189;-86
2023/08/18 05:05:24;;;;;;;4.93;2.80;;;;;;;;;;5012186;28;20236;-87
2023/08/18 05:07:52;;;;;;;4.10;3.37;;;;;;;;;;5013517;28;20204;-86
2023/08/18 05:10:22;;;;;;;7.70;5.47;;;;;;;;;;5012599;28;20276;-85
2023/08/18 05:12:50;;;;;;;6.27;4.70;;;;;;;;;;5012481;28;20279;-86
2023/08/18 05:15:19;;;;;;;4.50;4.07;;;;;;;;;;5012703;28;20214;-86
2023/08/18 05:17:48;;;;;;;4.27;3.40;;;;;;;;;;5013534;28;20214;-86
2023/08/18 05:20:16;;;;;;;5.10;4.40;;;;;;;;;;5013217;28;20198;-86
2023/08/18 05:22:48;;;;;;;5.83;3.93;;;;;;;;;;5013087;28;20191;-86
2023/08/18 05:25:17;;;;;;;5.40;4.37;;;;;;;;;;5013016;28;20214;-86
2023/08/18 05:27:47;;;;;;;7.20;4.47;;;;;;;;;;5012885;28;20279;-86
2023/08/18 05:30:15;;;;;;;3.97;2.73;;;;;;;;;;5012642;28;20203;-86
2023/08/18 05:32:44;;;;;;;2.53;2.33;;;;;;;;;;5012497;28;20211;-86
2023/08/18 05:35:12;;;;;;;3.87;2.97;;;;;;;;;;5013129;28;20204;-86
2023/08/18 05:37:41;;;;;;;5.37;4.40;;;;;;;;;;5013418;28;20204;-88
2023/08/18 05:40:10;;;;;;;1.90;1.80;;;;;;;;;;5014683;28;20204;-90
2023/08/18 05:42:39;;;;;;;3.47;2.67;;;;;;;;;;5013685;28;20230;-90
2023/08/18 05:45:10;;;;;;;4.47;3.77;;;;;;;;;;5013455;28;20203;-89
2023/08/18 05:47:39;;;;;;;3.33;3.13;;;;;;;;;;5013981;28;20218;-90
2023/08/18 05:50:08;;;;;;;3.50;2.03;;;;;;;;;;5012733;28;20211;-90
2023/08/18 05:52:36;;;;;;;2.93;2.63;;;;;;;;;;5013474;28;20212;-90
2023/08/18 05:55:05;;;;;;;5.63;4.40;;;;;;;;;;5013677;28;20200;-90
2023/08/18 05:57:36;;;;;;;3.17;2.87;;;;;;;;;;5012840;28;20212;-86
2023/08/18 06:00:06;;;;;;;3.97;3.33;;;;;;;;;;5012440;28;20291;-86
2023/08/18 06:02:36;;;;;;;3.70;3.17;;;;;;;;;;5012188;28;20204;-85
2023/08/18 06:05:05;;;;;;;1.60;1.50;;;;;;;;;;5012398;28;20187;-86
2023/08/18 06:07:34;;;;;;;0.70;0.70;;;;;;;;;;5011573;28;20271;-86
2023/08/18 06:10:02;;;;;;;1.53;1.43;;;;;;;;;;5012137;28;20200;-86
2023/08/18 06:12:31;;;;;;;2.07;1.90;;;;;;;;;;5012300;28;20220;-85
2023/08/18 06:14:59;;;;;;;1.33;1.27;;;;;;;;;;5011969;28;20210;-85
2023/08/18 06:17:28;;;;;;;1.70;1.60;;;;;;;;;;5011772;28;20212;-86
2023/08/18 06:19:59;;;;;;;4.03;3.20;;;;;;;;;;5011938;28;20251;-86
2023/08/18 06:22:28;;;;;;;2.67;2.10;;;;;;;;;;5012397;28;20215;-85
2023/08/18 06:24:56;;;;;;;0.60;0.60;;;;;;;;;;5013590;28;20286;-86
2023/08/18 06:27:25;;;;;;;1.77;0.80;;;;;;;;;;5016053;28;20200;-86
2023/08/18 06:29:53;;;;;;;2.37;1.73;;;;;;;;;;5016020;28;20201;-85
2023/08/18 06:32:22;;;;;;;2.40;2.20;;;;;;;;;;5015827;28;20223;-86
2023/08/18 06:34:51;;;;;;;2.80;1.57;;;;;;;;;;5015395;28;20202;-85
2023/08/18 06:37:21;;;;;;;3.10;2.80;;;;;;;;;;5015893;28;20203;-85
2023/08/18 06:39:50;;;;;;;2.83;1.83;;;;;;;;;;5016080;28;20237;-86
2023/08/18 06:42:18;;;;;;;6.30;2.97;;;;;;;;;;5016214;28;20206;-90
2023/08/18 06:44:47;;;;;;;1.23;1.13;;;;;;;;;;5016940;28;20229;-90
2023/08/18 06:47:15;;;;;;;1.17;1.17;;;;;;;;;;5016616;28;20262;-90
2023/08/18 06:49:44;;;;;;;1.73;1.63;;;;;;;;;;5016664;28;20196;-91
2023/08/18 06:52:15;;;;;;;3.37;2.07;;;;;;;;;;5015928;28;20233;-86
2023/08/18 06:54:47;;;;;;;6.47;3.50;;;;;;;;;;5015828;28;20231;-87
2023/08/18 06:57:16;;;;;;;1.87;1.77;;;;;;;;;;5016081;28;20204;-86
2023/08/18 06:59:47;;;;;;;3.43;2.97;;;;;;;;;;5015517;28;20206;-86
2023/08/18 07:02:17;;;;;;;1.93;1.83;;;;;;;;;;5015541;28;20198;-87
2023/08/18 07:04:45;;;;;;;2.47;2.27;;;;;;;;;;5015650;28;20250;-88
2023/08/18 07:07:17;;;;;;;2.97;1.80;;;;;;;;;;5015709;28;20330;-87
2023/08/18 07:09:49;;;;;;;6.53;3.50;;;;;;;;;;5014946;28;20206;-86
2023/08/18 07:12:17;;;;;;;3.03;2.07;;;;;;;;;;5015464;28;20257;-88
2023/08/18 07:14:47;;;;;;;2.83;2.23;;;;;;;;;;5015340;28;20270;-87
2023/08/18 07:17:18;;;;;;;4.60;2.23;;;;;;;;;;5015295;28;20204;-87
2023/08/18 07:19:49;;;;;;;3.27;2.50;;;;;;;;;;5014782;28;20216;-87
2023/08/18 07:22:18;;;;;;;1.80;1.40;;;;;;;;;;5015495;28;20202;-87
2023/08/18 07:24:48;;;;;;;0.87;0.87;;;;;;;;;;5015359;28;20246;-86
2023/08/18 07:27:17;;;;;;;2.03;1.87;;;;;;;;;;5015015;28;20283;-87
2023/08/18 07:29:46;;;;;;;2.20;1.47;;;;;;;;;;5015563;28;20229;-86
2023/08/18 07:32:15;;;;;;;2.10;1.87;;;;;;;;;;5016621;28;20213;-87
2023/08/18 07:34:44;;;;;;;4.00;3.60;;;;;;;;;;5014859;28;20203;-89
2023/08/18 07:37:12;;;;;;;0.90;0.90;;;;;;;;;;5014919;28;20211;-86
2023/08/18 07:39:41;;;;;;;3.93;2.33;;;;;;;;;;5015000;28;20211;-87
2023/08/18 07:42:11;;;;;;;7.00;4.20;;;;;;;;;;5014958;28;20204;-87
2023/08/18 07:44:41;;;;;;;5.00;2.97;;;;;;;;;;5014647;28;20192;-87
2023/08/18 07:47:10;;;;;;;7.00;3.90;;;;;;;;;;5015548;28;20207;-87
2023/08/18 07:49:41;;;;;;;4.73;4.03;;;;;;;;;;5015192;28;20271;-86
2023/08/18 07:52:10;;;;;;;6.67;4.23;;;;;;;;;;5014471;28;20213;-86
2023/08/18 07:54:38;;;;;;;1.53;1.43;;;;;;;;;;5014806;28;20304;-87
2023/08/18 07:57:07;;;;;;;4.30;2.60;;;;;;;;;;5016101;28;20265;-92
2023/08/18 07:59:37;;;;;;;3.83;3.13;;;;;;;;;;5017162;28;20272;-92
2023/08/18 08:02:06;;;;;;;1.07;1.00;;;;;;;;;;5016915;28;20236;-87
2023/08/18 08:04:55;;;;;;;6.37;3.57;;;;;;;;;;5014363;28;20203;-87
2023/08/18 08:07:24;;;;;;;5.57;2.97;;;;;;;;;;5014805;28;20366;-86
2023/08/18 08:09:56;;;;;;;5.73;3.90;;;;;;;;;;5017420;28;20196;-91
2023/08/18 08:12:25;;;;;;;8.00;3.80;;;;;;;;;;5017222;28;20249;-92
2023/08/18 08:14:56;;;;;;;1.40;1.33;;;;;;;;;;5017385;28;20238;-92
2023/08/18 08:17:24;;;;;;;1.57;1.00;;;;;;;;;;5016720;28;20203;-92
2023/08/18 08:19:53;;;;;;;2.63;2.00;;;;;;;;;;5016927;28;20315;-92
2023/08/18 08:22:27;;;;;;;4.67;2.00;;;;;;;;;;5017555;28;20200;-91
2023/08/18 08:24:57;;;;;;;2.47;1.73;;;;;;;;;;5017835;28;20223;-92
2023/08/18 08:27:31;;;;;;;3.10;1.63;;;;;;;;;;5018551;28;20267;-91
2023/08/18 08:30:02;;;;;;;4.80;1.93;;;;;;;;;;5017855;28;20207;-93
2023/08/18 08:32:33;;;;;;;3.57;2.27;;;;;;;;;;5017950;28;20203;-92
2023/08/18 08:35:02;;;;;;;4.00;3.20;;;;;;;;;;5018193;28;20267;-91
2023/08/18 08:37:33;;;;;;;3.70;2.67;;;;;;;;;;5019721;28;20200;-90
2023/08/18 08:40:10;;;;;;;6.60;2.83;;;;;;;;;;5014360;28;20200;-91
2023/08/18 08:42:39;;;;;;;4.77;2.77;;;;;;;;;;5002066;28;20247;-92
2023/08/18 08:45:10;;;;;;;2.13;1.93;;;;;;;;;;5017490;28;20204;-91
2023/08/18 08:47:42;;;;;;;1.63;1.53;;;;;;;;;;5013693;28;20196;-93
2023/08/18 08:50:12;;;;;;;3.90;3.17;;;;;;;;;;5014549;28;20204;-92
2023/08/18 08:52:41;;;;;;;1.73;1.63;;;;;;;;;;5014952;28;20244;-91
2023/08/18 08:55:14;;;;;;;1.70;1.60;;;;;;;;;;5014015;28;20209;-91
2023/08/18 08:57:45;;;;;;;2.40;2.17;;;;;;;;;;5014941;28;20208;-91
2023/08/18 09:00:19;;;;;;;1.63;1.53;;;;;;;;;;5014496;28;20210;-91
2023/08/18 09:02:47;;;;;;;1.20;1.10;;;;;;;;;;5014197;28;20207;-91
2023/08/18 09:05:28;;;;;;;2.67;2.03;;;;;;;;;;5015235;28;20259;-91
2023/08/18 09:07:56;;;;;;;5.57;3.37;;;;;;;;;;5014607;28;20216;-91
2023/08/18 09:10:26;;;;;;;3.27;2.57;;;;;;;;;;5013979;28;20204;-91
2023/08/18 09:12:55;;;;;;;5.60;2.20;;;;;;;;;;5014154;28;20214;-91
2023/08/18 09:15:28;;;;;;;7.33;3.37;;;;;;;;;;5017396;28;20206;-93
2023/08/18 09:17:57;;;;;;;1.93;1.47;;;;;;;;;;5018888;28;20265;-92
2023/08/18 09:20:26;;;;;;;5.27;3.50;;;;;;;;;;5018813;28;20203;-92
2023/08/18 09:22:59;;;;;;;1.70;1.60;;;;;;;;;;5019178;28;20223;-92
2023/08/18 09:25:28;;;;;;;3.73;2.90;;;;;;;;;;5020912;28;20198;-93
2023/08/18 09:27:59;;;;;;;0.90;0.90;;;;;;;;;;5020708;28;20265;-91
2023/08/18 09:30:34;;;;;;;2.33;2.13;;;;;;;;;;5023042;28;20246;-91
2023/08/18 09:33:07;;;;;;;2.13;1.20;;;;;;;;;;5018516;28;20206;-89
2023/08/18 09:35:37;;;;;;;4.07;2.30;;;;;;;;;;5024360;28;20210;-90
2023/08/18 09:38:06;;;;;;;5.83;1.87;;;;;;;;;;5019030;28;20272;-91
2023/08/18 09:40:34;;;;;;;4.97;3.83;;;;;;;;;;5014562;28;20206;-91
2023/08/18 09:43:03;;;;;;;7.23;3.97;;;;;;;;;;5018180;28;20248;-91
2023/08/18 09:45:40;;;;;;;3.87;3.17;;;;;;;;;;5022663;28;20200;-92
2023/08/18 09:48:11;;;;;;;3.93;3.13;;;;;;;;;;5021307;28;20258;-91
2023/08/18 09:50:45;;;;;;;7.17;4.80;;;;;;;;;;5020385;28;20284;-92
2023/08/18 09:53:23;;;;;;;7.83;4.13;;;;;;;;;;5022206;28;20457;-92
2023/08/18 09:55:53;;;;;;;4.63;3.20;;;;;;;;;;5022014;28;20209;-92
2023/08/18 09:58:25;;;;;;;3.60;3.03;;;;;;;;;;5021998;28;20195;-92
2023/08/18 10:00:56;;;;;;;8.40;5.47;;;;;;;;;;5021882;28;20218;-93
2023/08/18 10:03:27;;;;;;;3.13;2.17;;;;;;;;;;5016582;28;20197;-91
2023/08/18 10:05:56;;;;;;;6.37;2.83;;;;;;;;;;5021392;28;20224;-92
2023/08/18 10:08:27;;;;;;;4.87;2.77;;;;;;;;;;5021661;28;20237;-92
2023/08/18 10:10:56;;;;;;;5.37;2.97;;;;;;;;;;5022331;28;20223;-92
2023/08/18 10:13:26;;;;;;;3.00;2.23;;;;;;;;;;5020724;28;20230;-91
2023/08/18 10:15:59;;;;;;;9.37;6.13;;;;;;;;;;5021103;28;20215;-90
2023/08/18 10:18:30;;;;;;;4.73;3.63;;;;;;;;;;5021936;28;20203;-92
2023/08/18 10:21:00;;;;;;;6.60;3.80;;;;;;;;;;5021023;28;20205;-92
2023/08/18 10:23:30;;;;;;;7.03;4.40;;;;;;;;;;5019153;28;20196;-92
2023/08/18 10:25:59;;;;;;;5.63;4.50;;;;;;;;;;5018106;28;20209;-93
2023/08/18 10:28:34;;;;;;;10.90;2.70;;;;;;;;;;5019009;28;20192;-93
2023/08/18 10:31:09;;;;;;;3.60;3.07;;;;;;;;;;5018545;28;20285;-93
2023/08/18 10:33:43;;;;;;;6.13;3.23;;;;;;;;;;5023625;28;20211;-91
2023/08/18 10:36:21;;;;;;;5.07;4.27;;;;;;;;;;5025188;28;20237;-91
2023/08/18 10:38:52;;;;;;;3.20;2.87;;;;;;;;;;5024201;28;20202;-93
2023/08/18 10:41:25;;;;;;;5.93;4.30;;;;;;;;;;5020473;28;20240;-92
2023/08/18 10:43:57;;;;;;;5.20;4.10;;;;;;;;;;5021712;28;20205;-92
2023/08/18 10:46:36;;;;;;;5.23;4.73;;;;;;;;;;5021950;28;20194;-92
2023/08/18 10:49:06;;;;;;;4.60;3.57;;;;;;;;;;5013551;28;20202;-88
2023/08/18 10:51:35;;;;;;;6.63;4.87;;;;;;;;;;5011996;28;20235;-88
2023/08/18 10:54:03;;;;;;;5.63;3.30;;;;;;;;;;5013287;28;20209;-88
2023/08/18 10:56:32;;;;;;;7.60;5.13;;;;;;;;;;5016609;28;20292;-88
2023/08/18 10:59:01;;;;;;;4.93;3.70;;;;;;;;;;5018276;28;20200;-88
2023/08/18 11:01:30;;;;;;;4.77;4.33;;;;;;;;;;5018647;28;20254;-87
2023/08/18 11:04:02;;;;;;;6.63;4.47;;;;;;;;;;5015206;28;20287;-87
2023/08/18 11:06:30;;;;;;;5.47;4.33;;;;;;;;;;5014514;28;20231;-88
2023/08/18 11:08:59;;;;;;;7.67;5.80;;;;;;;;;;5013189;28;20211;-88
2023/08/18 11:11:29;;;;;;;5.27;4.23;;;;;;;;;;5014915;28;20201;-89
2023/08/18 11:13:58;;;;;;;6.37;4.73;;;;;;;;;;5015932;28;20194;-88
2023/08/18 11:16:27;;;;;;;5.13;3.43;;;;;;;;;;5015373;28;20263;-88
2023/08/18 11:18:56;;;;;;;4.70;3.43;;;;;;;;;;5014991;28;20201;-88
2023/08/18 11:21:27;;;;;;;8.83;7.17;;;;;;;;;;5015958;28;20225;-88
2023/08/18 11:23:56;;;;;;;7.73;4.83;;;;;;;;;;5016747;28;20197;-88
2023/08/18 11:26:25;;;;;;;7.63;6.30;;;;;;;;;;5014887;28;20297;-88
2023/08/18 11:28:55;;;;;;;9.03;7.00;;;;;;;;;;5015754;28;20225;-88
2023/08/18 11:31:24;;;;;;;8.43;6.53;;;;;;;;;;5015829;28;20203;-88
2023/08/18 11:33:53;;;;;;;6.83;4.53;;;;;;;;;;5015616;28;20290;-88
2023/08/18 11:36:22;;;;;;;2.80;2.57;;;;;;;;;;5015592;28;20289;-88
2023/08/18 11:38:52;;;;;;;8.50;6.20;;;;;;;;;;5016326;28;20199;-89
2023/08/18 11:41:21;;;;;;;9.83;6.50;;;;;;;;;;5015357;28;20286;-88
2023/08/18 11:43:51;;;;;;;6.40;4.50;;;;;;;;;;5015099;28;20198;-87
2023/08/18 11:46:21;;;;;;;1.70;1.63;;;;;;;;;;5015331;28;20200;-88
2023/08/18 11:48:54;;;;;;;8.63;5.60;;;;;;;;;;5015210;28;20199;-88
2023/08/18 11:51:23;;;;;;;8.87;7.00;;;;;;;;;;5016359;28;20326;-89
2023/08/18 11:53:53;;;;;;;10.10;5.47;;;;;;;;;;5015352;28;20225;-89
2023/08/18 11:56:25;;;;;;;3.13;2.83;;;;;;;;;;5015395;28;20276;-88
2023/08/18 11:58:54;;;;;;;9.70;5.27;;;;;;;;;;5015181;28;20217;-88
2023/08/18 12:01:23;;;;;;;5.97;1.87;;;;;;;;;;5014894;28;20278;-88
2023/08/18 12:03:56;;;;;;;2.37;2.17;;;;;;;;;;5014880;28;20202;-88
2023/08/18 12:06:25;;;;;;;6.10;5.37;;;;;;;;;;5014909;28;20227;-88
2023/08/18 12:08:58;;;;;;;10.83;6.80;;;;;;;;;;5021611;28;20201;-93
2023/08/18 12:11:28;;;;;;;6.17;3.93;;;;;;;;;;5027203;28;20195;-93
2023/08/18 12:14:03;;;;;;;7.10;5.70;;;;;;;;;;5026988;28;20191;-93
2023/08/18 12:16:42;;;;;;;10.33;8.33;;;;;;;;;;5028028;28;20447;-92
2023/08/18 12:19:14;;;;;;;4.10;3.70;;;;;;;;;;5027201;28;20190;-91
2023/08/18 12:22:00;;;;;;;3.73;3.13;;;;;;;;;;5026158;28;20259;-93
2023/08/18 12:24:34;;;;;;;2.03;1.33;;;;;;;;;;5027114;28;20195;-93
2023/08/18 12:27:06;;;;;;;6.13;5.53;;;;;;;;;;5027214;28;20211;-94
2023/08/18 12:29:38;;;;;;;6.60;4.73;;;;;;;;;;5018435;28;20217;-88
2023/08/18 12:32:07;;;;;;;7.10;6.40;;;;;;;;;;5015056;28;20209;-88
2023/08/18 12:34:36;;;;;;;8.03;6.80;;;;;;;;;;5015456;28;20213;-87
2023/08/18 12:37:04;;;;;;;10.67;8.23;;;;;;;;;;5014588;28;20325;-88
2023/08/18 12:39:36;;;;;;;8.00;6.63;;;;;;;;;;5014519;28;20210;-88
2023/08/18 12:42:05;;;;;;;7.80;5.23;;;;;;;;;;5014419;28;20201;-88
2023/08/18 12:44:34;;;;;;;4.40;3.87;;;;;;;;;;5013951;28;20211;-88
2023/08/18 12:47:09;;;;;;;3.97;3.40;;;;;;;;;;5014125;28;20221;-87
2023/08/18 12:49:38;;;;;;;12.00;6.50;;;;;;;;;;5021288;28;20223;-91
2023/08/18 12:52:10;;;;;;;4.93;4.47;;;;;;;;;;5025260;28;20281;-92
2023/08/18 12:54:41;;;;;;;8.30;5.70;;;;;;;;;;5025046;28;20287;-92
2023/08/18 12:57:12;;;;;;;7.77;5.80;;;;;;;;;;5025653;28;20224;-92
2023/08/18 12:59:43;;;;;;;7.57;4.87;;;;;;;;;;5025517;28;20200;-91
2023/08/18 13:02:15;;;;;;;3.33;1.90;;;;;;;;;;5015286;28;20214;-87
2023/08/18 13:04:44;;;;;;;6.97;3.67;;;;;;;;;;5014289;28;20201;-87
2023/08/18 13:07:13;;;;;;;7.10;3.83;;;;;;;;;;5014084;28;20242;-88
2023/08/18 13:09:50;;;;;;;5.63;4.50;;;;;;;;;;5013749;28;20205;-88
2023/08/18 13:12:19;;;;;;;11.37;8.30;;;;;;;;;;5014834;28;20219;-88
2023/08/18 13:14:48;;;;;;;8.40;5.33;;;;;;;;;;5014091;28;20211;-88
2023/08/18 13:17:16;;;;;;;2.67;2.47;;;;;;;;;;5013904;28;20208;-87
2023/08/18 13:19:47;;;;;;;5.67;4.97;;;;;;;;;;5014093;28;20200;-87
2023/08/18 13:22:17;;;;;;;1.77;1.63;;;;;;;;;;5013417;28;20191;-86
2023/08/18 13:24:48;;;;;;;6.27;4.80;;;;;;;;;;5023837;28;20212;-92
2023/08/18 13:27:18;;;;;;;6.73;3.20;;;;;;;;;;5024546;28;20217;-92
2023/08/18 13:29:52;;;;;;;11.30;8.43;;;;;;;;;;5023906;28;20289;-91
2023/08/18 13:32:21;;;;;;;9.37;8.33;;;;;;;;;;5022890;28;20223;-93
2023/08/18 13:34:50;;;;;;;5.43;4.87;;;;;;;;;;5022367;28;20230;-92
2023/08/18 13:37:19;;;;;;;3.90;2.73;;;;;;;;;;5020999;28;20231;-93
2023/08/18 13:39:48;;;;;;;10.57;6.07;;;;;;;;;;5020801;28;20201;-93
2023/08/18 13:42:17;;;;;;;7.50;6.07;;;;;;;;;;5020414;28;20260;-93
2023/08/18 13:44:47;;;;;;;9.80;7.97;;;;;;;;;;5020629;28;20211;-92
2023/08/18 13:47:16;;;;;;;2.37;1.93;;;;;;;;;;5020755;28;20208;-93
2023/08/18 13:49:47;;;;;;;4.40;4.00;;;;;;;;;;5021597;28;20208;-93
2023/08/18 13:52:16;;;;;;;3.77;3.40;;;;;;;;;;5021862;28;20291;-94
2023/08/18 13:54:46;;;;;;;4.70;4.27;;;;;;;;;;5022159;28;20189;-94
2023/08/18 13:57:17;;;;;;;7.27;5.17;;;;;;;;;;5018324;28;20225;-94
2023/08/18 13:59:47;;;;;;;9.70;7.50;;;;;;;;;;5018530;28;20261;-94
2023/08/18 14:02:18;;;;;;;1.60;0.93;;;;;;;;;;5017920;28;20243;-93
2023/08/18 14:04:46;;;;;;;4.63;4.20;;;;;;;;;;5016708;28;20200;-93
2023/08/18 14:07:15;;;;;;;10.50;7.30;;;;;;;;;;5015992;28;20279;-93
2023/08/18 14:09:44;;;;;;;10.10;6.40;;;;;;;;;;5015903;28;20195;-93
2023/08/18 14:12:13;;;;;;;10.50;6.63;;;;;;;;;;5016343;28;20201;-94
2023/08/18 14:14:42;;;;;;;9.00;4.53;;;;;;;;;;5016162;28;20209;-92
2023/08/18 14:17:12;;;;;;;7.20;2.80;;;;;;;;;;5015979;28;20217;-93
2023/08/18 14:19:41;;;;;;;8.97;5.70;;;;;;;;;;5014691;28;20198;-93
2023/08/18 14:22:09;;;;;;;3.20;2.63;;;;;;;;;;5014088;28;20312;-93
2023/08/18 14:24:38;;;;;;;10.77;5.73;;;;;;;;;;5013482;28;20241;-92
2023/08/18 14:27:07;;;;;;;10.60;9.50;;;;;;;;;;5013767;28;20187;-93
2023/08/18 14:29:35;;;;;;;5.57;3.87;;;;;;;;;;5013746;28;20250;-93
2023/08/18 14:32:04;;;;;;;8.93;6.63;;;;;;;;;;5012664;28;20199;-93
2023/08/18 14:34:34;;;;;;;7.03;5.23;;;;;;;;;;5013173;28;20198;-94
2023/08/18 14:37:03;;;;;;;6.97;5.13;;;;;;;;;;5013793;28;20261;-93
2023/08/18 14:39:33;;;;;;;5.53;4.93;;;;;;;;;;5014654;28;20205;-94
2023/08/18 14:42:02;;;;;;;7.37;5.17;;;;;;;;;;5014124;28;20221;-94
2023/08/18 14:44:31;;;;;;;10.37;9.27;;;;;;;;;;5014947;28;20205;-94
2023/08/18 14:47:00;;;;;;;4.33;3.93;;;;;;;;;;5017840;28;20248;-92
2023/08/18 14:49:28;;;;;;;8.13;5.87;;;;;;;;;;5018995;28;20201;-93
2023/08/18 14:52:04;;;;;;;8.13;5.27;;;;;;;;;;5017991;28;20316;-94
2023/08/18 14:54:33;;;;;;;2.50;1.50;;;;;;;;;;5018998;28;20266;-94
2023/08/18 14:57:04;;;;;;;5.03;4.17;;;;;;;;;;5018236;28;20224;-93
2023/08/18 14:59:33;;;;;;;3.73;3.00;;;;;;;;;;5015219;28;20266;-88